sensor_id;sensor_type;location;lat;lon;timestamp;pressure;altitude;pressure_sealevel;temperature;humidity
42633;BME280;28261;53.304;-6.284;2022-11-06T00:00:21;99697.06;;;9.93;96.36
42633;BME280;28261;53.304;-6.284;2022-11-06T00:02:25;99686.47;;;9.93;96.16
42633;BME280;28261;53.304;-6.284;2022-11-06T00:04:31;99685.50;;;9.94;96.84
42633;BME280;28261;53.304;-6.284;2022-11-06T00:06:34;99673.84;;;9.96;96.81
42633;BME280;28261;53.304;-6.284;2022-11-06T00:08:49;99670.94;;;9.99;97.05
42633;BME280;28261;53.304;-6.284;2022-11-06T00:10:53;99668.16;;;10.01;96.97
42633;BME280;28261;53.304;-6.284;2022-11-06T00:12:56;99665.38;;;10.03;97.11
42633;BME280;28261;53.304;-6.284;2022-11-06T00:15:00;99666.47;;;10.00;97.60
42633;BME280;28261;53.304;-6.284;2022-11-06T00:17:03;99665.50;;;10.01;97.81
42633;BME280;28261;53.304;-6.284;2022-11-06T00:19:08;99663.94;;;9.98;98.53
42633;BME280;28261;53.304;-6.284;2022-11-06T00:21:14;99654.44;;;9.96;98.81
42633;BME280;28261;53.304;-6.284;2022-11-06T00:23:18;99656.25;;;9.95;99.54
42633;BME280;28261;53.304;-6.284;2022-11-06T00:25:22;99655.53;;;9.93;99.70
42633;BME280;28261;53.304;-6.284;2022-11-06T00:27:27;99655.66;;;9.92;100.00
42633;BME280;28261;53.304;-6.284;2022-11-06T00:29:30;99640.72;;;9.91;100.00
42633;BME280;28261;53.304;-6.284;2022-11-06T00:31:35;99649.75;;;9.88;100.00
42633;BME280;28261;53.304;-6.284;2022-11-06T00:33:40;99648.81;;;9.89;100.00
42633;BME280;28261;53.304;-6.284;2022-11-06T00:35:46;99638.34;;;9.88;100.00
42633;BME280;28261;53.304;-6.284;2022-11-06T00:37:52;99636.66;;;9.87;100.00
42633;BME280;28261;53.304;-6.284;2022-11-06T00:39:57;99634.13;;;9.85;100.00
42633;BME280;28261;53.304;-6.284;2022-11-06T00:42:01;99628.16;;;9.83;100.00
42633;BME280;28261;53.304;-6.284;2022-11-06T00:44:05;99623.94;;;9.80;100.00
42633;BME280;28261;53.304;-6.284;2022-11-06T00:46:11;99616.97;;;9.79;100.00
42633;BME280;28261;53.304;-6.284;2022-11-06T00:48:15;99619.47;;;9.81;100.00
42633;BME280;28261;53.304;-6.284;2022-11-06T00:50:18;99598.44;;;9.79;100.00
42633;BME280;28261;53.304;-6.284;2022-11-06T00:52:22;99599.38;;;9.78;100.00
42633;BME280;28261;53.304;-6.284;2022-11-06T00:54:27;99601.91;;;9.80;100.00
42633;BME280;28261;53.304;-6.284;2022-11-06T00:56:32;99587.72;;;9.81;100.00
42633;BME280;28261;53.304;-6.284;2022-11-06T00:58:36;99586.75;;;9.82;100.00
42633;BME280;28261;53.304;-6.284;2022-11-06T01:00:40;99578.56;;;9.85;100.00
42633;BME280;28261;53.304;-6.284;2022-11-06T01:02:44;99580.25;;;9.86;100.00
42633;BME280;28261;53.304;-6.284;2022-11-06T01:04:47;99580.13;;;9.88;100.00
42633;BME280;28261;53.304;-6.284;2022-11-06T01:06:53;99572.16;;;9.88;100.00
42633;BME280;28261;53.304;-6.284;2022-11-06T01:08:57;99573.00;;;9.88;100.00
42633;BME280;28261;53.304;-6.284;2022-11-06T01:11:08;99559.66;;;9.90;100.00
42633;BME280;28261;53.304;-6.284;2022-11-06T01:13:12;99548.22;;;9.89;100.00
42633;BME280;28261;53.304;-6.284;2022-11-06T01:15:16;99545.56;;;9.89;100.00
42633;BME280;28261;53.304;-6.284;2022-11-06T01:17:19;99544.00;;;9.87;100.00
42633;BME280;28261;53.304;-6.284;2022-11-06T01:19:23;99535.25;;;9.86;100.00
42633;BME280;28261;53.304;-6.284;2022-11-06T01:21:28;99533.41;;;9.87;100.00
42633;BME280;28261;53.304;-6.284;2022-11-06T01:23:33;99533.41;;;9.87;100.00
42633;BME280;28261;53.304;-6.284;2022-11-06T01:25:37;99530.91;;;9.85;100.00
42633;BME280;28261;53.304;-6.284;2022-11-06T01:27:42;99531.03;;;9.83;100.00
42633;BME280;28261;53.304;-6.284;2022-11-06T01:29:45;99523.50;;;9.79;100.00
42633;BME280;28261;53.304;-6.284;2022-11-06T01:31:49;99523.63;;;9.77;100.00
42633;BME280;28261;53.304;-6.284;2022-11-06T01:33:53;99513.53;;;9.71;100.00
42633;BME280;28261;53.304;-6.284;2022-11-06T01:35:57;99512.94;;;9.68;100.00
42633;BME280;28261;53.304;-6.284;2022-11-06T01:38:01;99497.19;;;9.66;100.00
42633;BME280;28261;53.304;-6.284;2022-11-06T01:40:05;99505.38;;;9.63;100.00
42633;BME280;28261;53.304;-6.284;2022-11-06T01:42:10;99500.22;;;9.61;100.00
42633;BME280;28261;53.304;-6.284;2022-11-06T01:46:56;99483.19;;;9.54;100.00
42633;BME280;28261;53.304;-6.284;2022-11-06T01:49:02;99482.72;;;9.49;100.00
42633;BME280;28261;53.304;-6.284;2022-11-06T01:51:07;99471.94;;;9.41;100.00
42633;BME280;28261;53.304;-6.284;2022-11-06T01:53:12;99472.06;;;9.39;100.00
42633;BME280;28261;53.304;-6.284;2022-11-06T01:55:18;99470.13;;;9.41;100.00
42633;BME280;28261;53.304;-6.284;2022-11-06T01:57:23;99468.22;;;9.43;100.00
42633;BME280;28261;53.304;-6.284;2022-11-06T01:59:29;99462.91;;;9.43;100.00
42633;BME280;28261;53.304;-6.284;2022-11-06T02:01:34;99460.41;;;9.42;100.00
42633;BME280;28261;53.304;-6.284;2022-11-06T02:03:46;99455.09;;;9.42;100.00
42633;BME280;28261;53.304;-6.284;2022-11-06T02:05:52;99452.56;;;9.40;100.00
42633;BME280;28261;53.304;-6.284;2022-11-06T02:07:56;99459.66;;;9.40;100.00
42633;BME280;28261;53.304;-6.284;2022-11-06T02:10:01;99470.13;;;9.41;100.00
42633;BME280;28261;53.304;-6.284;2022-11-06T02:12:12;99460.28;;;9.43;100.00
42633;BME280;28261;53.304;-6.284;2022-11-06T02:14:20;99455.22;;;9.40;100.00
42633;BME280;28261;53.304;-6.284;2022-11-06T02:16:36;99447.78;;;9.34;100.00
42633;BME280;28261;53.304;-6.284;2022-11-06T02:19:14;99446.84;;;9.35;100.00
42633;BME280;28261;53.304;-6.284;2022-11-06T02:26:59;99419.41;;;9.36;100.00
42633;BME280;28261;53.304;-6.284;2022-11-06T02:29:07;99408.81;;;9.36;100.00
42633;BME280;28261;53.304;-6.284;2022-11-06T02:31:14;99409.16;;;9.43;100.00
42633;BME280;28261;53.304;-6.284;2022-11-06T02:33:26;99406.13;;;9.47;100.00
42633;BME280;28261;53.304;-6.284;2022-11-06T02:35:34;99389.59;;;9.55;100.00
42633;BME280;28261;53.304;-6.284;2022-11-06T02:37:41;99370.31;;;9.64;100.00
42633;BME280;28261;53.304;-6.284;2022-11-06T02:39:48;99365.22;;;9.73;100.00
42633;BME280;28261;53.304;-6.284;2022-11-06T02:41:56;99368.16;;;9.79;100.00
42633;BME280;28261;53.304;-6.284;2022-11-06T02:44:05;99359.81;;;9.84;100.00
42633;BME280;28261;53.304;-6.284;2022-11-06T02:46:12;99355.84;;;9.90;100.00
42633;BME280;28261;53.304;-6.284;2022-11-06T02:48:20;99341.22;;;9.95;100.00
42633;BME280;28261;53.304;-6.284;2022-11-06T02:50:28;99340.69;;;10.02;100.00
42633;BME280;28261;53.304;-6.284;2022-11-06T02:52:37;99344.72;;;10.06;100.00
42633;BME280;28261;53.304;-6.284;2022-11-06T02:54:46;99335.81;;;10.07;100.00
42633;BME280;28261;53.304;-6.284;2022-11-06T02:56:55;99328.59;;;10.09;100.00
42633;BME280;28261;53.304;-6.284;2022-11-06T02:59:04;99335.41;;;10.11;100.00
42633;BME280;28261;53.304;-6.284;2022-11-06T03:01:15;99330.00;;;10.13;100.00
42633;BME280;28261;53.304;-6.284;2022-11-06T03:03:24;99332.66;;;10.13;100.00
42633;BME280;28261;53.304;-6.284;2022-11-06T03:05:31;99332.53;;;10.14;100.00
42633;BME280;28261;53.304;-6.284;2022-11-06T03:07:38;99350.34;;;10.12;100.00
42633;BME280;28261;53.304;-6.284;2022-11-06T03:09:45;99341.56;;;10.12;100.00
42633;BME280;28261;53.304;-6.284;2022-11-06T03:11:56;99330.00;;;10.13;100.00
42633;BME280;28261;53.304;-6.284;2022-11-06T03:14:07;99331.53;;;10.15;100.00
42633;BME280;28261;53.304;-6.284;2022-11-06T03:16:22;99314.28;;;10.21;100.00
42633;BME280;28261;53.304;-6.284;2022-11-06T03:18:33;99304.22;;;10.25;100.00
42633;BME280;28261;53.304;-6.284;2022-11-06T03:20:41;99309.00;;;10.31;100.00
42633;BME280;28261;53.304;-6.284;2022-11-06T03:22:53;99290.78;;;10.38;100.00
42633;BME280;28261;53.304;-6.284;2022-11-06T03:25:01;99288.69;;;10.41;100.00
42633;BME280;28261;53.304;-6.284;2022-11-06T03:27:19;99271.53;;;10.45;100.00
42633;BME280;28261;53.304;-6.284;2022-11-06T03:29:30;99266.94;;;10.47;100.00
42633;BME280;28261;53.304;-6.284;2022-11-06T03:31:38;99270.03;;;10.53;100.00
42633;BME280;28261;53.304;-6.284;2022-11-06T03:33:48;99262.75;;;10.55;100.00
42633;BME280;28261;53.304;-6.284;2022-11-06T03:35:57;99266.94;;;10.57;100.00
42633;BME280;28261;53.304;-6.284;2022-11-06T03:38:06;99265.00;;;10.59;100.00
42633;BME280;28261;53.304;-6.284;2022-11-06T03:40:16;99261.38;;;10.60;100.00
42633;BME280;28261;53.304;-6.284;2022-11-06T03:42:26;99254.13;;;10.62;100.00
42633;BME280;28261;53.304;-6.284;2022-11-06T03:44:33;99255.94;;;10.62;100.00
42633;BME280;28261;53.304;-6.284;2022-11-06T03:46:42;99247.00;;;10.63;100.00
42633;BME280;28261;53.304;-6.284;2022-11-06T03:48:51;99254.81;;;10.64;100.00
42633;BME280;28261;53.304;-6.284;2022-11-06T03:50:59;99252.16;;;10.64;100.00
42633;BME280;28261;53.304;-6.284;2022-11-06T03:53:07;99247.00;;;10.63;100.00
42633;BME280;28261;53.304;-6.284;2022-11-06T03:55:15;99250.63;;;10.62;100.00
42633;BME280;28261;53.304;-6.284;2022-11-06T03:57:24;99252.44;;;10.61;100.00
42633;BME280;28261;53.304;-6.284;2022-11-06T03:59:33;99233.06;;;10.61;100.00
42633;BME280;28261;53.304;-6.284;2022-11-06T04:01:39;99237.53;;;10.60;100.00
42633;BME280;28261;53.304;-6.284;2022-11-06T04:03:48;99241.28;;;10.58;100.00
42633;BME280;28261;53.304;-6.284;2022-11-06T04:05:57;99234.34;;;10.57;100.00
42633;BME280;28261;53.304;-6.284;2022-11-06T04:08:05;99235.31;;;10.56;100.00
42633;BME280;28261;53.304;-6.284;2022-11-06T04:10:27;99229.03;;;10.57;100.00
42633;BME280;28261;53.304;-6.284;2022-11-06T04:12:51;99227.34;;;10.56;100.00
42633;BME280;28261;53.304;-6.284;2022-11-06T04:15:15;99230.16;;;10.54;100.00
42633;BME280;28261;53.304;-6.284;2022-11-06T04:17:21;99224.84;;;10.54;100.00
42633;BME280;28261;53.304;-6.284;2022-11-06T04:19:26;99228.31;;;10.55;100.00
42633;BME280;28261;53.304;-6.284;2022-11-06T04:21:41;99214.25;;;10.54;100.00
42633;BME280;28261;53.304;-6.284;2022-11-06T04:23:51;99224.00;;;10.54;100.00
42633;BME280;28261;53.304;-6.284;2022-11-06T04:26:19;99217.88;;;10.53;100.00
42633;BME280;28261;53.304;-6.284;2022-11-06T04:28:47;99215.34;;;10.52;100.00
42633;BME280;28261;53.304;-6.284;2022-11-06T04:31:00;99199.59;;;10.50;100.00
42633;BME280;28261;53.304;-6.284;2022-11-06T04:33:10;99190.81;;;10.49;100.00
42633;BME280;28261;53.304;-6.284;2022-11-06T04:35:21;99190.13;;;10.47;100.00
42633;BME280;28261;53.304;-6.284;2022-11-06T04:37:33;99208.66;;;10.47;100.00
42633;BME280;28261;53.304;-6.284;2022-11-06T04:39:46;99214.94;;;10.46;100.00
42633;BME280;28261;53.304;-6.284;2022-11-06T04:42:00;99210.47;;;10.47;100.00
42633;BME280;28261;53.304;-6.284;2022-11-06T04:44:09;99192.78;;;10.47;100.00
42633;BME280;28261;53.304;-6.284;2022-11-06T04:46:19;99203.38;;;10.47;100.00
42633;BME280;28261;53.304;-6.284;2022-11-06T04:48:24;99196.38;;;10.46;100.00
42633;BME280;28261;53.304;-6.284;2022-11-06T04:50:30;99184.09;;;10.45;100.00
42633;BME280;28261;53.304;-6.284;2022-11-06T04:52:36;99192.19;;;10.44;100.00
42633;BME280;28261;53.304;-6.284;2022-11-06T04:54:41;99203.75;;;10.43;100.00
42633;BME280;28261;53.304;-6.284;2022-11-06T04:56:44;99193.47;;;10.40;100.00
42633;BME280;28261;53.304;-6.284;2022-11-06T04:58:48;99192.63;;;10.39;100.00
42633;BME280;28261;53.304;-6.284;2022-11-06T05:00:52;99186.63;;;10.37;100.00
42633;BME280;28261;53.304;-6.284;2022-11-06T05:02:56;99184.97;;;10.36;100.00
42633;BME280;28261;53.304;-6.284;2022-11-06T05:04:59;99185.19;;;10.33;100.00
42633;BME280;28261;53.304;-6.284;2022-11-06T05:07:02;99187.16;;;10.31;100.00
42633;BME280;28261;53.304;-6.284;2022-11-06T05:09:06;99178.50;;;10.29;100.00
42633;BME280;28261;53.304;-6.284;2022-11-06T05:11:09;99167.38;;;10.25;100.00
42633;BME280;28261;53.304;-6.284;2022-11-06T05:13:13;99170.16;;;10.24;100.00
42633;BME280;28261;53.304;-6.284;2022-11-06T05:15:17;99174.03;;;10.20;100.00
42633;BME280;28261;53.304;-6.284;2022-11-06T05:17:22;99167.09;;;10.19;100.00
42633;BME280;28261;53.304;-6.284;2022-11-06T05:19:25;99173.34;;;10.18;100.00
42633;BME280;28261;53.304;-6.284;2022-11-06T05:21:28;99158.44;;;10.16;100.00
42633;BME280;28261;53.304;-6.284;2022-11-06T05:23:49;99154.81;;;10.18;100.00
42633;BME280;28261;53.304;-6.284;2022-11-06T05:25:52;99153.00;;;10.18;100.00
42633;BME280;28261;53.304;-6.284;2022-11-06T05:27:56;99150.19;;;10.20;100.00
42633;BME280;28261;53.304;-6.284;2022-11-06T05:29:59;99145.91;;;10.19;100.00
42633;BME280;28261;53.304;-6.284;2022-11-06T05:32:03;99133.34;;;10.21;100.00
42633;BME280;28261;53.304;-6.284;2022-11-06T05:34:08;99128.34;;;10.18;100.00
42633;BME280;28261;53.304;-6.284;2022-11-06T05:36:11;99131.13;;;10.16;100.00
42633;BME280;28261;53.304;-6.284;2022-11-06T05:38:15;99124.97;;;10.15;100.00
42633;BME280;28261;53.304;-6.284;2022-11-06T05:40:18;99110.78;;;10.16;100.00
42633;BME280;28261;53.304;-6.284;2022-11-06T05:42:21;99106.72;;;10.12;100.00
42633;BME280;28261;53.304;-6.284;2022-11-06T05:44:25;99106.72;;;10.12;100.00
42633;BME280;28261;53.304;-6.284;2022-11-06T05:46:28;99105.91;;;10.12;100.00
42633;BME280;28261;53.304;-6.284;2022-11-06T05:48:50;99108.56;;;10.12;100.00
42633;BME280;28261;53.304;-6.284;2022-11-06T05:51:00;99113.00;;;10.11;100.00
42633;BME280;28261;53.304;-6.284;2022-11-06T05:53:04;99122.75;;;10.11;100.00
42633;BME280;28261;53.304;-6.284;2022-11-06T05:55:08;99109.53;;;10.11;100.00
42633;BME280;28261;53.304;-6.284;2022-11-06T05:57:16;99112.16;;;10.11;100.00
42633;BME280;28261;53.304;-6.284;2022-11-06T05:59:19;99107.69;;;10.11;100.00
42633;BME280;28261;53.304;-6.284;2022-11-06T06:01:22;99104.38;;;10.09;100.00
42633;BME280;28261;53.304;-6.284;2022-11-06T06:03:26;99101.72;;;10.09;99.75
42633;BME280;28261;53.304;-6.284;2022-11-06T06:05:30;99097.09;;;10.11;99.51
42633;BME280;28261;53.304;-6.284;2022-11-06T06:07:35;99099.75;;;10.11;99.63
42633;BME280;28261;53.304;-6.284;2022-11-06T06:09:38;99103.41;;;10.10;99.39
42633;BME280;28261;53.304;-6.284;2022-11-06T06:11:42;99096.28;;;10.11;99.30
42633;BME280;28261;53.304;-6.284;2022-11-06T06:13:45;99100.75;;;10.10;98.97
42633;BME280;28261;53.304;-6.284;2022-11-06T06:15:49;99101.72;;;10.09;99.18
42633;BME280;28261;53.304;-6.284;2022-11-06T06:17:52;99091.28;;;10.08;98.55
42633;BME280;28261;53.304;-6.284;2022-11-06T06:19:55;99088.19;;;10.03;98.89
42633;BME280;28261;53.304;-6.284;2022-11-06T06:21:59;99084.72;;;10.02;98.61
42633;BME280;28261;53.304;-6.284;2022-11-06T06:24:04;99090.16;;;10.01;99.07
42633;BME280;28261;53.304;-6.284;2022-11-06T06:26:08;99078.72;;;10.00;98.99
42633;BME280;28261;53.304;-6.284;2022-11-06T06:28:11;99078.88;;;9.98;99.20
42633;BME280;28261;53.304;-6.284;2022-11-06T06:30:15;99070.94;;;9.98;98.68
42633;BME280;28261;53.304;-6.284;2022-11-06T06:32:18;99081.50;;;9.98;98.93
42633;BME280;28261;53.304;-6.284;2022-11-06T06:34:22;99084.31;;;9.97;98.44
42633;BME280;28261;53.304;-6.284;2022-11-06T06:36:25;99076.38;;;9.97;98.71
42633;BME280;28261;53.304;-6.284;2022-11-06T06:38:28;99068.44;;;9.97;98.87
42633;BME280;28261;53.304;-6.284;2022-11-06T06:40:33;99067.47;;;9.98;98.58
42633;BME280;28261;53.304;-6.284;2022-11-06T06:42:36;99063.00;;;9.98;98.46
42633;BME280;28261;53.304;-6.284;2022-11-06T06:44:40;99070.34;;;9.95;98.36
42633;BME280;28261;53.304;-6.284;2022-11-06T06:46:43;99061.03;;;9.91;98.69
42633;BME280;28261;53.304;-6.284;2022-11-06T06:48:47;99060.50;;;9.87;98.83
42633;BME280;28261;53.304;-6.284;2022-11-06T06:50:50;99054.63;;;9.83;99.04
42633;BME280;28261;53.304;-6.284;2022-11-06T06:52:56;99041.53;;;9.82;98.86
42633;BME280;28261;53.304;-6.284;2022-11-06T06:54:59;99045.28;;;9.79;98.73
42633;BME280;28261;53.304;-6.284;2022-11-06T06:57:06;99041.41;;;9.74;99.18
42633;BME280;28261;53.304;-6.284;2022-11-06T06:59:10;99036.53;;;9.69;99.36
42633;BME280;28261;53.304;-6.284;2022-11-06T07:01:13;99036.94;;;9.64;99.14
42633;BME280;28261;53.304;-6.284;2022-11-06T07:03:16;99019.94;;;9.57;99.46
42633;BME280;28261;53.304;-6.284;2022-11-06T07:05:20;99024.66;;;9.54;99.66
42633;BME280;28261;53.304;-6.284;2022-11-06T07:07:23;99020.50;;;9.51;99.92
42633;BME280;28261;53.304;-6.284;2022-11-06T07:09:29;99024.38;;;9.47;99.54
42633;BME280;28261;53.304;-6.284;2022-11-06T07:11:32;99030.78;;;9.44;100.00
42633;BME280;28261;53.304;-6.284;2022-11-06T07:13:37;99033.72;;;9.41;100.00
42633;BME280;28261;53.304;-6.284;2022-11-06T07:15:40;99028.00;;;9.36;100.00
42633;BME280;28261;53.304;-6.284;2022-11-06T07:17:43;99019.06;;;9.27;100.00
42633;BME280;28261;53.304;-6.284;2022-11-06T07:19:47;99025.75;;;9.22;100.00
42633;BME280;28261;53.304;-6.284;2022-11-06T07:21:50;99019.75;;;9.20;100.00
42633;BME280;28261;53.304;-6.284;2022-11-06T07:23:54;99010.72;;;9.22;100.00
42633;BME280;28261;53.304;-6.284;2022-11-06T07:25:57;99018.25;;;9.27;100.00
42633;BME280;28261;53.304;-6.284;2022-11-06T07:28:01;99017.41;;;9.26;100.00
42633;BME280;28261;53.304;-6.284;2022-11-06T07:30:06;99022.81;;;9.25;100.00
42633;BME280;28261;53.304;-6.284;2022-11-06T07:32:10;99018.25;;;9.27;100.00
42633;BME280;28261;53.304;-6.284;2022-11-06T07:34:13;99015.75;;;9.25;100.00
42633;BME280;28261;53.304;-6.284;2022-11-06T07:36:16;99017.41;;;9.26;100.00
42633;BME280;28261;53.304;-6.284;2022-11-06T07:38:20;99026.88;;;9.29;100.00
42633;BME280;28261;53.304;-6.284;2022-11-06T07:40:23;99020.63;;;9.30;100.00
42633;BME280;28261;53.304;-6.284;2022-11-06T07:42:28;99030.91;;;9.33;100.00
42633;BME280;28261;53.304;-6.284;2022-11-06T07:44:37;99040.53;;;9.34;100.00
42633;BME280;28261;53.304;-6.284;2022-11-06T07:46:42;99036.91;;;9.35;100.00
42633;BME280;28261;53.304;-6.284;2022-11-06T07:48:45;99034.97;;;9.37;100.00
42633;BME280;28261;53.304;-6.284;2022-11-06T07:50:49;99040.25;;;9.37;100.00
42633;BME280;28261;53.304;-6.284;2022-11-06T07:52:52;99033.03;;;9.39;100.00
42633;BME280;28261;53.304;-6.284;2022-11-06T07:54:56;99033.03;;;9.39;100.00
42633;BME280;28261;53.304;-6.284;2022-11-06T07:56:59;99032.31;;;9.37;100.00
42633;BME280;28261;53.304;-6.284;2022-11-06T07:59:02;99030.63;;;9.36;100.00
42633;BME280;28261;53.304;-6.284;2022-11-06T08:01:12;99036.50;;;9.40;100.00
42633;BME280;28261;53.304;-6.284;2022-11-06T08:03:22;99031.34;;;9.38;100.00
42633;BME280;28261;53.304;-6.284;2022-11-06T08:05:26;99035.81;;;9.38;100.00
42633;BME280;28261;53.304;-6.284;2022-11-06T08:07:30;99033.03;;;9.39;100.00
42633;BME280;28261;53.304;-6.284;2022-11-06T08:09:33;99034.56;;;9.42;100.00
42633;BME280;28261;53.304;-6.284;2022-11-06T08:11:36;99038.72;;;9.44;100.00
42633;BME280;28261;53.304;-6.284;2022-11-06T08:13:40;99036.22;;;9.43;100.00
42633;BME280;28261;53.304;-6.284;2022-11-06T08:15:44;99041.66;;;9.41;100.00
42633;BME280;28261;53.304;-6.284;2022-11-06T08:17:48;99029.97;;;9.44;100.00
42633;BME280;28261;53.304;-6.284;2022-11-06T08:19:53;99019.09;;;9.47;100.00
42633;BME280;28261;53.304;-6.284;2022-11-06T08:21:56;99018.84;;;9.50;100.00
42633;BME280;28261;53.304;-6.284;2022-11-06T08:23:59;99019.38;;;9.54;100.00
42633;BME280;28261;53.304;-6.284;2022-11-06T08:26:04;99023.41;;;9.58;100.00
42633;BME280;28261;53.304;-6.284;2022-11-06T08:28:08;99026.63;;;9.61;100.00
42633;BME280;28261;53.304;-6.284;2022-11-06T08:30:12;99017.59;;;9.64;100.00
42633;BME280;28261;53.304;-6.284;2022-11-06T08:32:15;99015.63;;;9.66;100.00
42633;BME280;28261;53.304;-6.284;2022-11-06T08:34:19;99009.94;;;9.71;100.00
42633;BME280;28261;53.304;-6.284;2022-11-06T08:36:24;99011.19;;;9.76;99.76
42633;BME280;28261;53.304;-6.284;2022-11-06T08:38:27;99009.06;;;9.80;99.34
42633;BME280;28261;53.304;-6.284;2022-11-06T08:40:38;99011.31;;;9.85;99.30
42633;BME280;28261;53.304;-6.284;2022-11-06T08:42:42;99006.56;;;9.88;98.92
42633;BME280;28261;53.304;-6.284;2022-11-06T08:44:45;98999.88;;;9.94;98.89
42633;BME280;28261;53.304;-6.284;2022-11-06T08:46:48;99004.59;;;10.00;98.83
42633;BME280;28261;53.304;-6.284;2022-11-06T08:48:53;98998.75;;;10.06;98.40
42633;BME280;28261;53.304;-6.284;2022-11-06T08:50:56;99004.31;;;10.13;98.24
42633;BME280;28261;53.304;-6.284;2022-11-06T08:53:02;99009.16;;;10.18;98.21
42633;BME280;28261;53.304;-6.284;2022-11-06T08:55:07;99015.72;;;10.23;97.81
42633;BME280;28261;53.304;-6.284;2022-11-06T08:57:11;99011.78;;;10.27;97.50
42633;BME280;28261;53.304;-6.284;2022-11-06T08:59:14;99019.06;;;10.35;97.50
42633;BME280;28261;53.304;-6.284;2022-11-06T09:01:18;99010.00;;;10.38;96.88
42633;BME280;28261;53.304;-6.284;2022-11-06T09:03:21;99014.84;;;10.42;96.90
42633;BME280;28261;53.304;-6.284;2022-11-06T09:05:25;99002.31;;;10.44;96.31
42633;BME280;28261;53.304;-6.284;2022-11-06T09:07:29;99002.31;;;10.44;95.94
42633;BME280;28261;53.304;-6.284;2022-11-06T09:09:34;99001.47;;;10.44;95.68
42633;BME280;28261;53.304;-6.284;2022-11-06T09:11:37;99003.13;;;10.45;95.58
42633;BME280;28261;53.304;-6.284;2022-11-06T09:13:40;98998.66;;;10.45;95.13
42633;BME280;28261;53.304;-6.284;2022-11-06T09:15:43;98995.88;;;10.47;94.53
42633;BME280;28261;53.304;-6.284;2022-11-06T09:17:48;98996.41;;;10.50;93.99
42633;BME280;28261;53.304;-6.284;2022-11-06T09:19:53;98995.84;;;10.57;93.63
42633;BME280;28261;53.304;-6.284;2022-11-06T09:21:56;98997.22;;;10.61;93.68
42633;BME280;28261;53.304;-6.284;2022-11-06T09:23:59;98993.31;;;10.65;93.22
42633;BME280;28261;53.304;-6.284;2022-11-06T09:26:04;98989.25;;;10.71;92.02
42633;BME280;28261;53.304;-6.284;2022-11-06T09:28:08;98990.75;;;10.73;91.59
42633;BME280;28261;53.304;-6.284;2022-11-06T09:30:15;98991.00;;;10.80;91.47
42633;BME280;28261;53.304;-6.284;2022-11-06T09:32:19;98990.72;;;10.83;90.73
42633;BME280;28261;53.304;-6.284;2022-11-06T09:34:23;98987.91;;;10.84;90.46
42633;BME280;28261;53.304;-6.284;2022-11-06T09:36:27;98976.34;;;10.86;90.89
42633;BME280;28261;53.304;-6.284;2022-11-06T09:38:30;98975.63;;;10.83;90.59
42633;BME280;28261;53.304;-6.284;2022-11-06T09:40:36;98981.91;;;10.82;90.46
42633;BME280;28261;53.304;-6.284;2022-11-06T09:42:51;98972.56;;;10.78;90.74
42633;BME280;28261;53.304;-6.284;2022-11-06T09:45:01;98967.59;;;10.75;90.43
42633;BME280;28261;53.304;-6.284;2022-11-06T09:47:13;98967.88;;;10.72;90.93
42633;BME280;28261;53.304;-6.284;2022-11-06T09:49:22;98965.38;;;10.71;90.93
42633;BME280;28261;53.304;-6.284;2022-11-06T09:51:35;98961.88;;;10.70;91.28
42633;BME280;28261;53.304;-6.284;2022-11-06T09:53:45;98958.97;;;10.73;91.50
42633;BME280;28261;53.304;-6.284;2022-11-06T09:55:51;98962.84;;;10.79;91.15
42633;BME280;28261;53.304;-6.284;2022-11-06T09:58:00;98961.41;;;10.84;91.21
42633;BME280;28261;53.304;-6.284;2022-11-06T10:00:09;98959.16;;;10.90;91.11
42633;BME280;28261;53.304;-6.284;2022-11-06T10:02:26;98952.97;;;10.99;90.78
42633;BME280;28261;53.304;-6.284;2022-11-06T10:04:38;98945.75;;;11.09;90.29
42633;BME280;28261;53.304;-6.284;2022-11-06T10:06:43;98934.91;;;11.21;90.17
42633;BME280;28261;53.304;-6.284;2022-11-06T10:08:48;98938.34;;;11.31;90.11
42633;BME280;28261;53.304;-6.284;2022-11-06T10:11:01;98936.44;;;11.41;88.82
42633;BME280;28261;53.304;-6.284;2022-11-06T10:13:21;98934.06;;;11.56;88.69
42633;BME280;28261;53.304;-6.284;2022-11-06T10:15:32;98927.75;;;11.75;87.93
42633;BME280;28261;53.304;-6.284;2022-11-06T10:17:44;98928.88;;;11.91;87.17
42633;BME280;28261;53.304;-6.284;2022-11-06T10:20:05;98919.69;;;12.03;86.38
42633;BME280;28261;53.304;-6.284;2022-11-06T10:22:14;98920.94;;;12.17;85.40
42633;BME280;28261;53.304;-6.284;2022-11-06T10:24:21;98918.31;;;12.25;84.31
42633;BME280;28261;53.304;-6.284;2022-11-06T10:26:32;98914.22;;;12.39;84.28
42633;BME280;28261;53.304;-6.284;2022-11-06T10:29:01;98909.75;;;12.48;83.01
42633;BME280;28261;53.304;-6.284;2022-11-06T10:31:14;98910.81;;;12.55;82.76
42633;BME280;28261;53.304;-6.284;2022-11-06T10:33:33;98905.00;;;12.60;82.23
42633;BME280;28261;53.304;-6.284;2022-11-06T10:35:46;98906.00;;;12.67;80.59
42633;BME280;28261;53.304;-6.284;2022-11-06T10:37:56;98901.22;;;12.70;81.12
42633;BME280;28261;53.304;-6.284;2022-11-06T10:40:04;98900.06;;;12.73;80.37
42633;BME280;28261;53.304;-6.284;2022-11-06T10:42:14;98903.53;;;12.74;80.28
42633;BME280;28261;53.304;-6.284;2022-11-06T10:44:24;98898.22;;;12.74;79.66
42633;BME280;28261;53.304;-6.284;2022-11-06T10:46:34;98896.59;;;12.73;80.53
42633;BME280;28261;53.304;-6.284;2022-11-06T10:48:45;98905.91;;;12.77;79.18
42633;BME280;28261;53.304;-6.284;2022-11-06T10:51:00;98892.75;;;12.75;78.64
42633;BME280;28261;53.304;-6.284;2022-11-06T10:53:13;98892.75;;;12.75;78.64
42633;BME280;28261;53.304;-6.284;2022-11-06T10:56:04;98889.94;;;12.77;78.78
42633;BME280;28261;53.304;-6.284;2022-11-06T10:58:15;98890.59;;;12.79;78.27
42633;BME280;28261;53.304;-6.284;2022-11-06T11:00:21;98890.09;;;12.83;78.15
42633;BME280;28261;53.304;-6.284;2022-11-06T11:02:28;98888.81;;;12.88;79.00
42633;BME280;28261;53.304;-6.284;2022-11-06T11:04:34;98882.66;;;12.95;77.51
42633;BME280;28261;53.304;-6.284;2022-11-06T11:06:38;98886.00;;;12.97;77.40
42633;BME280;28261;53.304;-6.284;2022-11-06T11:08:43;98870.84;;;12.98;77.15